createdAt,value
2019-05-09T00:01:26.783Z,21.74
2019-05-09T00:03:54.364Z,21.71
2019-05-09T00:06:20.082Z,21.71
2019-05-09T00:08:46.709Z,21.68
2019-05-09T00:11:14.427Z,21.65
2019-05-09T00:13:40.003Z,21.75
2019-05-09T00:16:06.651Z,21.71
2019-05-09T00:18:33.745Z,21.73
2019-05-09T00:20:59.938Z,21.69
2019-05-09T00:23:26.581Z,21.77
2019-05-09T00:25:53.767Z,21.70
2019-05-09T00:28:19.877Z,21.73
2019-05-09T00:30:46.523Z,21.72
2019-05-09T00:33:14.311Z,21.72
2019-05-09T00:35:39.805Z,21.68
2019-05-09T00:38:06.458Z,21.70
2019-05-09T00:40:34.165Z,21.67
2019-05-09T00:42:59.764Z,21.66
2019-05-09T00:45:26.385Z,21.64
2019-05-09T00:47:53.924Z,21.69
2019-05-09T00:50:19.670Z,21.64
2019-05-09T00:52:46.309Z,21.65
2019-05-09T00:55:13.293Z,21.62
2019-05-09T00:57:39.576Z,21.66
2019-05-09T01:00:06.214Z,21.61
2019-05-09T01:02:34.066Z,21.64
2019-05-09T01:04:59.496Z,21.63
2019-05-09T01:07:26.158Z,21.65
2019-05-09T01:09:54.334Z,21.59
2019-05-09T01:12:19.445Z,21.63
2019-05-09T01:14:46.084Z,21.61
2019-05-09T01:17:13.588Z,21.58
2019-05-09T01:22:06.093Z,21.60
2019-05-09T01:24:33.771Z,21.60
2019-05-09T01:26:59.382Z,21.60
2019-05-09T01:29:26.025Z,21.64
2019-05-09T01:31:54.123Z,21.63
2019-05-09T01:34:19.339Z,21.63
2019-05-09T01:36:45.993Z,21.63
2019-05-09T01:39:13.790Z,21.63
2019-05-09T01:44:05.905Z,21.66
2019-05-09T01:46:34.055Z,21.65
2019-05-09T01:48:59.198Z,21.66
2019-05-09T01:51:25.839Z,21.62
2019-05-09T01:53:53.177Z,21.67
2019-05-09T01:56:19.125Z,21.73
2019-05-09T01:58:45.763Z,21.72
2019-05-09T02:01:13.451Z,21.69
2019-05-09T02:03:39.057Z,21.76
2019-05-09T02:06:05.702Z,21.75
2019-05-09T02:08:34.551Z,21.75
2019-05-09T02:10:58.991Z,21.75
2019-05-09T02:13:25.646Z,21.82
2019-05-09T02:15:53.871Z,21.77
2019-05-09T02:18:18.930Z,21.86
2019-05-09T02:20:45.575Z,21.77
2019-05-09T02:23:13.990Z,21.80
2019-05-09T02:25:38.858Z,21.81
2019-05-09T02:28:05.510Z,21.86
2019-05-09T02:30:35.767Z,21.82
2019-05-09T02:32:58.805Z,21.87
2019-05-09T02:35:28.504Z,21.87
2019-05-09T02:37:52.088Z,21.89
2019-05-09T02:40:18.992Z,21.88
2019-05-09T02:42:48.715Z,21.93
2019-05-09T02:45:12.046Z,21.87
2019-05-09T02:47:38.945Z,21.95
2019-05-09T02:50:08.558Z,21.90
2019-05-09T02:52:32.028Z,21.93
2019-05-09T02:54:58.757Z,21.92
2019-05-09T02:57:25.359Z,21.98
2019-05-09T02:59:51.989Z,21.91
2019-05-09T03:02:19.606Z,22.01
2019-05-09T03:04:45.285Z,22.02
2019-05-09T03:07:11.923Z,22.71
2019-05-09T03:09:38.970Z,23.06
2019-05-09T03:12:23.107Z,23.47
2019-05-09T03:14:31.875Z,23.64
2019-05-09T03:16:58.965Z,23.80
2019-05-09T03:19:25.152Z,23.85
2019-05-09T03:21:51.798Z,23.98
2019-05-09T03:24:18.761Z,24.00
2019-05-09T03:26:45.077Z,23.86
2019-05-09T03:29:11.734Z,23.87
2019-05-09T03:31:39.449Z,23.62
2019-05-09T03:34:05.035Z,23.24
2019-05-09T03:36:31.673Z,23.01
2019-05-09T03:38:58.311Z,22.89
2019-05-09T03:41:24.944Z,22.83
2019-05-09T03:43:51.589Z,22.95
2019-05-09T03:46:18.270Z,22.83
2019-05-09T03:48:44.915Z,22.90
2019-05-09T03:51:11.545Z,22.90
2019-05-09T03:53:38.199Z,23.04
2019-05-09T03:56:04.860Z,23.00
2019-05-09T03:58:31.527Z,22.93
2019-05-09T04:00:58.166Z,22.98
2019-05-09T04:03:24.803Z,22.88
2019-05-09T04:05:59.294Z,23.11
2019-05-09T04:08:18.500Z,23.21
2019-05-09T04:10:44.764Z,23.23
2019-05-09T04:13:11.423Z,23.26
2019-05-09T04:15:38.062Z,23.30
2019-05-09T04:18:04.705Z,23.33
2019-05-09T04:20:31.359Z,23.29
2019-05-09T04:22:59.568Z,23.17
2019-05-09T04:25:24.673Z,23.42
2019-05-09T04:27:51.305Z,23.49
2019-05-09T04:30:18.340Z,23.61
2019-05-09T04:32:44.660Z,23.58
2019-05-09T04:35:13.610Z,23.59
2019-05-09T04:37:40.243Z,23.54
2019-05-09T04:40:08.235Z,23.48
2019-05-09T04:42:35.009Z,23.40
2019-05-09T04:45:03.558Z,23.31
2019-05-09T04:47:27.827Z,23.21
2019-05-09T04:49:53.586Z,23.09
2019-05-09T04:52:20.225Z,22.97
2019-05-09T04:54:48.435Z,22.64
2019-05-09T04:57:13.526Z,22.58
2019-05-09T04:59:40.223Z,22.60
2019-05-09T05:02:08.609Z,22.56
2019-05-09T05:04:33.632Z,22.54
2019-05-09T05:07:00.272Z,22.48
2019-05-09T05:11:53.569Z,22.33
2019-05-09T05:14:20.211Z,22.27
2019-05-09T05:16:53.019Z,22.27
2019-05-09T05:19:13.502Z,22.16
2019-05-09T05:21:40.145Z,22.05
2019-05-09T05:24:08.183Z,21.88
2019-05-09T05:26:33.516Z,22.00
2019-05-09T05:29:00.160Z,22.02
2019-05-09T05:31:28.538Z,22.26
2019-05-09T05:33:54.006Z,22.37
2019-05-09T05:36:20.145Z,22.37
2019-05-09T05:38:47.940Z,22.05
2019-05-09T05:41:13.498Z,22.19
2019-05-09T05:43:44.391Z,22.17
2019-05-09T05:46:07.693Z,21.96
2019-05-09T05:48:33.515Z,22.22
2019-05-09T05:51:00.179Z,22.00
2019-05-09T05:55:53.533Z,21.89
2019-05-09T05:58:20.586Z,22.03
2019-05-09T06:00:48.130Z,21.73
2019-05-09T06:03:13.955Z,21.93
2019-05-09T06:05:40.670Z,21.86
2019-05-09T06:08:10.714Z,21.97
2019-05-09T06:10:37.857Z,22.20
2019-05-09T06:13:04.046Z,21.99
2019-05-09T06:15:30.702Z,22.01
2019-05-09T06:17:58.094Z,21.91
2019-05-09T06:20:24.043Z,21.90
2019-05-09T06:22:50.679Z,21.84
2019-05-09T06:25:20.938Z,21.87
2019-05-09T06:27:44.021Z,22.25
2019-05-09T06:30:10.679Z,22.09
2019-05-09T06:32:38.467Z,22.09
2019-05-09T06:35:04.062Z,22.22
2019-05-09T06:37:30.703Z,22.18
2019-05-09T06:39:58.279Z,22.30
2019-05-09T06:42:25.480Z,22.49
2019-05-09T06:44:50.731Z,22.37
2019-05-09T06:47:18.545Z,22.17
2019-05-09T06:49:44.097Z,22.11
2019-05-09T06:52:10.745Z,22.54
2019-05-09T06:54:41.260Z,22.60
2019-05-09T06:57:04.051Z,22.54
2019-05-09T06:59:30.693Z,22.60
2019-05-09T07:01:57.624Z,22.39
2019-05-09T07:04:24.039Z,22.08
2019-05-09T07:06:50.691Z,22.52
2019-05-09T07:09:17.579Z,22.50
2019-05-09T07:14:25.607Z,22.11
2019-05-09T07:16:37.704Z,22.15
2019-05-09T07:19:04.084Z,22.08
2019-05-09T07:21:30.733Z,22.35
2019-05-09T07:23:58.327Z,22.17
2019-05-09T07:26:24.058Z,21.82
2019-05-09T07:28:50.697Z,21.83
2019-05-09T07:31:17.732Z,22.07
2019-05-09T07:33:44.039Z,21.89
2019-05-09T07:36:10.727Z,21.67
2019-05-09T07:38:38.453Z,21.66
2019-05-09T07:41:04.074Z,21.73
2019-05-09T07:43:30.730Z,21.74
2019-05-09T07:45:58.014Z,21.85
2019-05-09T07:48:24.065Z,21.69
2019-05-09T07:50:50.750Z,21.74
2019-05-09T07:53:17.716Z,21.99
2019-05-09T07:55:44.066Z,22.28
2019-05-09T07:58:14.106Z,22.35
2019-05-09T08:00:38.442Z,22.15
2019-05-09T08:03:04.026Z,22.20
2019-05-09T08:05:30.662Z,22.23
2019-05-09T08:07:58.550Z,22.19
2019-05-09T08:10:24.068Z,22.29
2019-05-09T08:12:50.720Z,22.15
2019-05-09T08:15:20.061Z,21.75
2019-05-09T08:17:44.031Z,21.89
2019-05-09T08:20:13.694Z,22.21
2019-05-09T08:22:42.172Z,21.80
2019-05-09T08:25:04.048Z,21.75
2019-05-09T08:27:30.649Z,21.65
2019-05-09T08:29:58.342Z,21.78
2019-05-09T08:32:24.008Z,21.66
2019-05-09T08:34:50.650Z,21.65
2019-05-09T08:37:17.635Z,21.40
2019-05-09T08:39:43.996Z,21.31
2019-05-09T08:42:10.657Z,21.38
2019-05-09T08:44:37.910Z,21.37
2019-05-09T08:47:04.111Z,21.73
2019-05-09T08:49:30.795Z,21.94
2019-05-09T08:52:10.236Z,22.36
2019-05-09T08:54:24.195Z,22.37
2019-05-09T08:56:50.809Z,22.28
2019-05-09T08:59:18.337Z,21.96
2019-05-09T09:02:08.381Z,21.92
2019-05-09T09:04:10.920Z,21.93
2019-05-09T09:06:38.059Z,21.80
2019-05-09T09:09:04.297Z,22.11
2019-05-09T09:11:30.998Z,21.89
2019-05-09T09:13:57.858Z,21.85
2019-05-09T09:16:24.354Z,21.90
2019-05-09T09:18:50.999Z,21.63
2019-05-09T09:23:49.724Z,21.44
2019-05-09T09:26:11.034Z,21.77
2019-05-09T09:28:38.114Z,21.97
2019-05-09T09:31:04.442Z,22.18
2019-05-09T09:33:31.082Z,22.50
2019-05-09T09:35:58.022Z,22.77
2019-05-09T09:38:24.426Z,22.43
2019-05-09T09:40:51.070Z,22.36
2019-05-09T09:43:17.904Z,22.34
2019-05-09T09:45:44.383Z,22.45
2019-05-09T09:48:11.087Z,22.37
2019-05-09T09:50:38.441Z,22.19
2019-05-09T09:53:04.415Z,22.41
2019-05-09T09:55:31.042Z,22.44
2019-05-09T09:57:58.070Z,22.17
2019-05-09T10:00:24.406Z,21.99
2019-05-09T10:02:51.048Z,21.98
2019-05-09T10:05:18.313Z,21.93
2019-05-09T10:07:44.464Z,22.55
2019-05-09T10:10:11.257Z,22.36
2019-05-09T10:12:44.466Z,22.31
2019-05-09T10:15:04.708Z,22.42
2019-05-09T10:17:31.428Z,22.46
2019-05-09T10:19:58.094Z,22.12
2019-05-09T10:22:26.175Z,22.47
2019-05-09T10:24:51.434Z,22.30
2019-05-09T10:27:18.611Z,22.29
2019-05-09T10:29:44.737Z,22.44
2019-05-09T10:32:11.391Z,22.72
2019-05-09T10:34:38.047Z,22.99
2019-05-09T10:37:04.738Z,22.70
2019-05-09T10:39:31.379Z,22.67
2019-05-09T10:41:58.083Z,22.84
2019-05-09T10:44:24.731Z,23.01
2019-05-09T10:46:57.312Z,23.27
2019-05-09T10:49:18.038Z,22.94
2019-05-09T10:51:44.729Z,23.01
2019-05-09T10:54:11.382Z,23.08
2019-05-09T10:56:38.533Z,23.08
2019-05-09T10:59:04.718Z,23.42
2019-05-09T11:01:31.359Z,23.69
2019-05-09T11:03:58.941Z,23.31
2019-05-09T11:06:24.760Z,23.28
2019-05-09T11:08:51.403Z,23.25
2019-05-09T11:13:44.776Z,23.50
2019-05-09T11:16:11.433Z,23.46
2019-05-09T11:18:38.086Z,23.22
2019-05-09T11:21:04.726Z,23.41
2019-05-09T11:23:31.421Z,23.57
2019-05-09T11:25:58.172Z,23.54
2019-05-09T11:28:24.853Z,23.54
2019-05-09T11:30:51.510Z,23.82
2019-05-09T11:33:18.341Z,23.63
2019-05-09T11:35:44.890Z,23.33
2019-05-09T11:38:11.667Z,23.63
2019-05-09T11:40:38.201Z,23.53
2019-05-09T11:43:04.903Z,23.39
2019-05-09T11:45:31.505Z,23.77
2019-05-09T11:47:58.488Z,23.85
2019-05-09T11:50:24.849Z,23.67
2019-05-09T11:52:51.498Z,23.78
2019-05-09T11:55:29.717Z,23.43
2019-05-09T11:57:44.816Z,23.31
2019-05-09T12:00:11.516Z,23.89
2019-05-09T12:02:38.658Z,23.51
2019-05-09T12:05:04.890Z,23.40
2019-05-09T12:07:31.613Z,23.38
2019-05-09T12:09:58.978Z,23.43
2019-05-09T12:12:24.923Z,23.84
2019-05-09T12:14:51.560Z,24.04
2019-05-09T12:17:19.563Z,24.03
2019-05-09T12:19:44.877Z,23.94
2019-05-09T12:22:11.537Z,23.77
2019-05-09T12:24:38.542Z,23.89
2019-05-09T12:27:04.900Z,24.14
2019-05-09T12:29:31.538Z,24.24
2019-05-09T12:31:58.225Z,23.82
2019-05-09T12:34:27.600Z,23.91
2019-05-09T12:36:51.663Z,23.96
2019-05-09T12:39:18.927Z,23.92
2019-05-09T12:41:45.000Z,23.81
2019-05-09T12:44:11.650Z,23.93
2019-05-09T12:46:39.409Z,23.85
2019-05-09T12:49:05.162Z,23.85
2019-05-09T12:51:31.816Z,23.81
2019-05-09T12:53:58.491Z,24.15
2019-05-09T12:56:25.132Z,24.29
2019-05-09T12:58:51.935Z,24.37
2019-05-09T13:01:19.007Z,24.29
2019-05-09T13:03:45.390Z,24.28
2019-05-09T13:08:38.879Z,24.94
2019-05-09T13:11:07.821Z,24.88
2019-05-09T13:13:32.409Z,24.88
2019-05-09T13:15:58.831Z,24.95
2019-05-09T13:18:29.524Z,24.98
2019-05-09T13:20:52.118Z,24.87
2019-05-09T13:23:18.768Z,25.14
2019-05-09T13:25:45.520Z,25.24
2019-05-09T13:30:38.722Z,25.49
2019-05-09T13:33:08.155Z,25.64
2019-05-09T13:35:32.057Z,25.81
2019-05-09T13:37:59.707Z,25.73
2019-05-09T13:40:28.869Z,25.58
2019-05-09T13:42:52.052Z,25.60
2019-05-09T13:45:18.831Z,25.53
2019-05-09T13:47:45.343Z,25.33
2019-05-09T13:50:12.038Z,25.42
2019-05-09T13:52:38.694Z,25.29
2019-05-09T13:55:05.549Z,24.92
2019-05-09T13:57:32.187Z,25.00
2019-05-09T13:59:59.768Z,25.42
2019-05-09T14:02:28.529Z,25.09
2019-05-09T14:04:52.255Z,24.77
2019-05-09T14:07:19.440Z,24.81
2019-05-09T14:09:48.166Z,25.21
2019-05-09T14:12:12.239Z,25.34
2019-05-09T14:14:38.979Z,25.11
2019-05-09T14:17:08.291Z,25.15
2019-05-09T14:19:42.548Z,25.22
2019-05-09T14:21:58.984Z,25.15
2019-05-09T14:24:27.765Z,25.17
2019-05-09T14:26:52.306Z,25.13
2019-05-09T14:29:20.636Z,25.25
2019-05-09T14:31:45.655Z,25.36
2019-05-09T14:34:12.288Z,25.39
2019-05-09T14:36:44.490Z,25.42
2019-05-09T14:39:05.638Z,25.26
2019-05-09T14:41:32.299Z,25.46
2019-05-09T14:43:59.835Z,25.68
2019-05-09T14:46:25.624Z,25.68
2019-05-09T14:48:52.340Z,25.76
2019-05-09T14:51:18.999Z,25.92
2019-05-09T14:53:45.677Z,26.05
2019-05-09T14:56:12.316Z,26.01
2019-05-09T14:58:39.026Z,26.12
2019-05-09T15:01:08.383Z,26.30
2019-05-09T15:03:32.336Z,26.33
2019-05-09T15:05:58.987Z,26.48
2019-05-09T15:08:27.823Z,26.57
2019-05-09T15:10:52.299Z,26.60
2019-05-09T15:13:18.957Z,26.72
2019-05-09T15:15:47.903Z,26.78
2019-05-09T15:18:12.286Z,26.83
2019-05-09T15:20:38.917Z,26.91
2019-05-09T15:23:05.569Z,27.00
2019-05-09T15:25:32.235Z,27.04
2019-05-09T15:27:58.923Z,27.10
2019-05-09T15:30:28.405Z,27.19
2019-05-09T15:35:18.548Z,27.40
2019-05-09T15:37:48.072Z,27.52
2019-05-09T15:43:08.447Z,27.75
2019-05-09T15:45:34.862Z,27.82
2019-05-09T15:48:01.525Z,27.96
2019-05-09T15:50:28.225Z,28.05
2019-05-09T15:52:54.871Z,28.12
2019-05-09T15:55:21.515Z,28.24
2019-05-09T15:57:48.676Z,28.31
2019-05-09T16:00:14.837Z,28.42
2019-05-09T16:02:41.491Z,28.54
2019-05-09T16:05:10.554Z,28.64
2019-05-09T16:07:37.366Z,28.71
2019-05-09T16:10:01.636Z,28.83
2019-05-09T16:12:28.272Z,28.91
2019-05-09T16:14:54.965Z,28.98
2019-05-09T16:17:21.626Z,29.04
2019-05-09T16:19:48.404Z,29.06
2019-05-09T16:22:15.069Z,29.17
2019-05-09T16:24:41.721Z,29.27
2019-05-09T16:27:08.596Z,29.33
2019-05-09T16:32:01.743Z,29.46
2019-05-09T16:34:28.389Z,29.54
2019-05-09T16:36:55.041Z,29.54
2019-05-09T16:39:21.701Z,29.63
2019-05-09T16:41:48.776Z,29.66
2019-05-09T16:44:18.230Z,29.76
2019-05-09T16:46:41.645Z,29.79
2019-05-09T16:49:11.719Z,29.82
2019-05-09T16:51:34.932Z,29.87
2019-05-09T16:54:01.592Z,29.96
2019-05-09T16:56:28.831Z,29.96
2019-05-09T16:58:54.931Z,29.97
2019-05-09T17:01:21.590Z,30.05
2019-05-09T17:03:48.322Z,30.09
2019-05-09T17:06:14.932Z,30.15
2019-05-09T17:08:41.575Z,30.20
2019-05-09T17:11:08.219Z,30.18
2019-05-09T17:13:34.868Z,30.21
2019-05-09T17:16:01.512Z,30.28
2019-05-09T17:18:28.496Z,30.33
2019-05-09T17:20:54.800Z,30.37
2019-05-09T17:23:21.455Z,30.43
2019-05-09T17:25:48.244Z,30.50
2019-05-09T17:28:14.825Z,30.53
2019-05-09T17:30:41.471Z,30.62
2019-05-09T17:33:08.138Z,30.65
2019-05-09T17:35:34.774Z,30.65
2019-05-09T17:38:01.543Z,30.72
2019-05-09T17:40:28.242Z,30.79
2019-05-09T17:42:54.874Z,30.87
2019-05-09T17:45:21.566Z,30.88
2019-05-09T17:50:14.870Z,30.90
2019-05-09T17:52:41.515Z,31.04
2019-05-09T17:55:08.206Z,31.04
2019-05-09T17:57:34.856Z,31.03
2019-05-09T18:00:01.566Z,31.27
2019-05-09T18:02:28.273Z,31.26
2019-05-09T18:04:54.874Z,31.41
2019-05-09T18:07:21.528Z,31.31
2019-05-09T18:09:48.539Z,31.27
2019-05-09T18:12:14.817Z,31.30
2019-05-09T18:14:41.515Z,31.35
2019-05-09T18:17:08.148Z,31.41
2019-05-09T18:19:34.852Z,31.41
2019-05-09T18:22:01.558Z,31.43
2019-05-09T18:24:28.848Z,31.49
2019-05-09T18:26:54.913Z,31.53
2019-05-09T18:29:21.552Z,31.54
2019-05-09T18:31:48.392Z,31.59
2019-05-09T18:34:14.854Z,31.64
2019-05-09T18:36:41.593Z,31.72
2019-05-09T18:39:08.249Z,31.61
2019-05-09T18:41:34.934Z,31.64
2019-05-09T18:44:01.579Z,31.66
2019-05-09T18:46:28.226Z,31.72
2019-05-09T18:48:54.880Z,31.76
2019-05-09T18:51:21.517Z,31.75
2019-05-09T18:53:48.158Z,31.79
2019-05-09T18:56:14.843Z,31.77
2019-05-09T18:58:41.478Z,31.82
2019-05-09T19:01:08.129Z,31.83
2019-05-09T19:03:34.789Z,31.88
2019-05-09T19:08:28.138Z,31.86
2019-05-09T19:10:54.947Z,31.88
2019-05-09T19:13:21.564Z,31.89
2019-05-09T19:15:48.230Z,31.93
2019-05-09T19:18:14.857Z,31.94
2019-05-09T19:20:41.535Z,31.97
2019-05-09T19:23:08.179Z,32.00
2019-05-09T19:25:34.870Z,31.97
2019-05-09T19:28:01.564Z,31.98
2019-05-09T19:30:28.283Z,32.04
2019-05-09T19:32:54.920Z,32.02
2019-05-09T19:35:21.572Z,32.01
2019-05-09T19:37:48.213Z,32.11
2019-05-09T19:40:19.966Z,32.07
2019-05-09T19:42:41.523Z,32.10
2019-05-09T19:45:08.211Z,32.17
2019-05-09T19:47:34.852Z,32.16
2019-05-09T19:50:01.723Z,32.16
2019-05-09T19:52:37.764Z,32.19
2019-05-09T19:54:54.837Z,32.17
2019-05-09T19:57:21.527Z,32.21
2019-05-09T19:59:48.157Z,32.23
2019-05-09T20:02:14.804Z,32.29
2019-05-09T20:04:41.450Z,32.33
2019-05-09T20:07:10.944Z,32.34
2019-05-09T20:09:37.602Z,32.39
2019-05-09T20:12:04.240Z,32.42
2019-05-09T20:16:57.533Z,32.46
2019-05-09T20:19:24.216Z,32.43
2019-05-09T20:21:50.890Z,32.46
2019-05-09T20:24:17.538Z,32.47
2019-05-09T20:26:44.190Z,32.48
2019-05-09T20:29:10.909Z,32.49
2019-05-09T20:31:37.624Z,32.51
2019-05-09T20:34:04.245Z,32.52
2019-05-09T20:36:30.885Z,32.52
2019-05-09T20:38:57.530Z,32.57
2019-05-09T20:41:24.212Z,32.54
2019-05-09T20:43:50.867Z,32.62
2019-05-09T20:46:17.534Z,32.63
2019-05-09T20:48:44.174Z,32.63
2019-05-09T20:51:10.817Z,32.68
2019-05-09T20:53:37.468Z,32.69
2019-05-09T20:56:04.114Z,32.77
2019-05-09T20:58:30.787Z,32.77
2019-05-09T21:00:57.472Z,32.75
2019-05-09T21:03:24.114Z,32.77
2019-05-09T21:05:50.773Z,32.80
2019-05-09T21:08:17.463Z,32.83
2019-05-09T21:10:44.093Z,32.83
2019-05-09T21:13:10.776Z,32.86
2019-05-09T21:15:37.416Z,32.84
2019-05-09T21:18:04.156Z,32.87
2019-05-09T21:20:30.805Z,32.86
2019-05-09T21:22:57.469Z,32.91
2019-05-09T21:25:24.128Z,32.89
2019-05-09T21:27:50.848Z,32.90
2019-05-09T21:30:17.485Z,32.90
2019-05-09T21:32:45.614Z,33.08
2019-05-09T21:37:37.564Z,33.09
2019-05-09T21:40:04.274Z,33.26
2019-05-09T21:42:30.914Z,33.28
2019-05-09T21:44:57.553Z,33.13
2019-05-09T21:47:24.218Z,33.15
2019-05-09T21:49:50.856Z,33.20
2019-05-09T21:52:17.498Z,33.12
2019-05-09T21:54:44.135Z,33.20
2019-05-09T21:57:10.782Z,33.23
2019-05-09T21:59:37.430Z,33.22
2019-05-09T22:02:04.118Z,33.28
2019-05-09T22:04:30.756Z,33.27
2019-05-09T22:06:57.421Z,33.25
2019-05-09T22:11:50.775Z,33.17
2019-05-09T22:14:17.462Z,33.11
2019-05-09T22:16:44.221Z,33.16
2019-05-09T22:19:10.857Z,33.21
2019-05-09T22:21:37.498Z,33.17
2019-05-09T22:24:04.192Z,33.18
2019-05-09T22:26:30.824Z,33.23
2019-05-09T22:28:57.485Z,33.19
2019-05-09T22:31:24.128Z,33.20
2019-05-09T22:33:50.816Z,33.25
2019-05-09T22:36:20.611Z,33.23
2019-05-09T22:38:47.295Z,33.30
2019-05-09T22:41:13.946Z,33.29
2019-05-09T22:43:40.594Z,33.31
2019-05-09T22:46:07.287Z,33.33
2019-05-09T22:48:33.916Z,33.34
2019-05-09T22:51:00.625Z,33.34
2019-05-09T22:53:27.302Z,33.38
2019-05-09T22:55:53.949Z,33.34
2019-05-09T22:58:20.595Z,33.37
2019-05-09T23:00:47.245Z,33.34
2019-05-09T23:03:13.878Z,33.42
2019-05-09T23:05:40.520Z,33.40
2019-05-09T23:08:07.270Z,33.39
2019-05-09T23:10:33.946Z,33.39
2019-05-09T23:13:00.604Z,33.46
2019-05-09T23:15:27.347Z,33.39
2019-05-09T23:17:54.003Z,33.44
2019-05-09T23:20:20.647Z,33.44
2019-05-09T23:22:47.280Z,33.51
2019-05-09T23:25:13.922Z,33.49
2019-05-09T23:27:40.567Z,33.48
2019-05-09T23:32:33.914Z,33.47
2019-05-09T23:35:00.576Z,33.44
2019-05-09T23:37:27.217Z,33.38
2019-05-09T23:39:53.874Z,33.47
2019-05-09T23:42:20.559Z,33.46
2019-05-09T23:44:47.214Z,33.46
2019-05-09T23:47:13.860Z,33.43
2019-05-09T23:49:40.516Z,33.39
2019-05-09T23:52:07.158Z,33.43
2019-05-09T23:54:45.068Z,33.41
2019-05-09T23:57:00.555Z,33.45
2019-05-09T23:59:27.233Z,33.45
